createdAt,value
2019-04-07T00:00:41.015Z,12.40
2019-04-07T00:03:10.702Z,11.83
2019-04-07T00:05:41.527Z,9.20
2019-04-07T00:08:11.189Z,9.55
2019-04-07T00:10:40.376Z,8.98
2019-04-07T00:13:09.977Z,8.88
2019-04-07T00:15:39.944Z,9.18
2019-04-07T00:18:09.353Z,8.73
2019-04-07T00:20:38.681Z,8.58
2019-04-07T00:23:09.595Z,9.35
2019-04-07T00:25:38.823Z,8.90
2019-04-07T00:28:10.157Z,8.43
2019-04-07T00:30:39.905Z,8.93
2019-04-07T00:33:09.154Z,8.43
2019-04-07T00:35:38.876Z,9.38
2019-04-07T00:38:08.350Z,9.05
2019-04-07T00:40:38.163Z,8.80
2019-04-07T00:43:07.453Z,7.42
2019-04-07T00:45:36.990Z,8.70
2019-04-07T00:48:06.853Z,9.10
2019-04-07T00:50:36.035Z,9.40
2019-04-07T00:53:05.664Z,9.03
2019-04-07T00:55:34.853Z,8.63
2019-04-07T00:58:03.997Z,8.20
2019-04-07T01:00:34.825Z,8.15
2019-04-07T01:03:04.098Z,9.10
2019-04-07T01:05:36.174Z,7.65
2019-04-07T01:08:04.306Z,8.00
2019-04-07T01:10:33.817Z,8.80
2019-04-07T01:13:03.286Z,8.55
2019-04-07T01:15:33.032Z,8.15
2019-04-07T01:18:02.837Z,9.13
2019-04-07T01:20:32.114Z,8.43
2019-04-07T01:23:01.631Z,7.92
2019-04-07T01:25:31.390Z,8.83
2019-04-07T01:28:01.991Z,8.48
2019-04-07T01:30:31.561Z,8.60
2019-04-07T01:33:00.928Z,9.75
2019-04-07T01:35:30.461Z,8.95
2019-04-07T01:38:01.458Z,9.03
2019-04-07T01:40:31.076Z,9.40
2019-04-07T01:43:20.483Z,8.85
2019-04-07T01:46:02.139Z,8.98
2019-04-07T01:48:33.012Z,8.25
2019-04-07T01:51:10.359Z,8.88
2019-04-07T01:53:46.847Z,8.70
2019-04-07T01:56:26.487Z,9.55
2019-04-07T01:58:57.338Z,10.05
2019-04-07T02:01:28.503Z,9.20
2019-04-07T02:04:11.715Z,9.53
2019-04-07T02:06:42.565Z,9.50
2019-04-07T02:09:13.650Z,10.93
2019-04-07T02:11:46.252Z,9.75
2019-04-07T02:14:32.264Z,10.00
2019-04-07T02:17:09.790Z,11.12
2019-04-07T02:19:44.903Z,10.95
2019-04-07T02:22:22.316Z,10.43
2019-04-07T02:24:54.569Z,9.65
2019-04-07T02:27:29.417Z,9.68
2019-04-07T02:30:03.796Z,9.33
2019-04-07T02:32:40.784Z,8.75
2019-04-07T02:35:24.657Z,9.43
2019-04-07T02:37:55.445Z,9.80
2019-04-07T02:40:45.750Z,10.98
2019-04-07T02:43:19.765Z,9.98
2019-04-07T02:45:50.793Z,10.70
2019-04-07T02:48:26.482Z,9.70
2019-04-07T02:50:59.735Z,10.58
2019-04-07T02:53:47.483Z,8.93
2019-04-07T02:56:33.753Z,10.28
2019-04-07T02:59:10.098Z,10.30
2019-04-07T03:01:52.096Z,10.23
2019-04-07T03:04:40.190Z,11.30
2019-04-07T03:07:17.667Z,10.32
2019-04-07T03:09:54.766Z,10.68
2019-04-07T03:12:34.777Z,9.85
2019-04-07T03:15:16.095Z,11.38
2019-04-07T03:17:51.826Z,11.05
2019-04-07T03:20:24.951Z,11.15
2019-04-07T03:23:08.058Z,10.68
2019-04-07T03:25:48.538Z,11.03
2019-04-07T03:28:22.698Z,11.15
2019-04-07T03:31:04.123Z,11.48
2019-04-07T03:33:42.638Z,10.23
2019-04-07T03:36:13.813Z,11.03
2019-04-07T03:39:02.046Z,11.03
2019-04-07T03:41:35.960Z,10.23
2019-04-07T03:44:09.504Z,10.13
2019-04-07T03:46:43.121Z,11.25
2019-04-07T03:49:13.927Z,10.82
2019-04-07T03:51:51.402Z,11.08
2019-04-07T03:54:25.269Z,11.18
2019-04-07T03:56:58.811Z,12.37
2019-04-07T03:59:46.067Z,13.10
2019-04-07T04:02:31.584Z,12.15
2019-04-07T04:05:03.748Z,12.33
2019-04-07T04:07:36.994Z,13.53
2019-04-07T04:10:14.140Z,14.23
2019-04-07T04:13:00.904Z,13.32
2019-04-07T04:15:38.203Z,11.57
2019-04-07T04:18:07.623Z,16.00
2019-04-07T04:20:37.270Z,14.05
2019-04-07T04:23:06.653Z,15.08
2019-04-07T04:25:35.859Z,12.50
2019-04-07T04:28:05.097Z,13.65
2019-04-07T04:30:34.219Z,13.78
2019-04-07T04:33:04.538Z,14.33
2019-04-07T04:35:34.017Z,13.60
2019-04-07T04:38:03.907Z,12.95
2019-04-07T04:40:33.198Z,14.87
2019-04-07T04:43:02.787Z,14.30
2019-04-07T04:45:32.041Z,14.43
2019-04-07T04:48:02.559Z,12.55
2019-04-07T04:50:31.985Z,14.43
2019-04-07T04:53:02.755Z,13.35
2019-04-07T04:55:31.961Z,13.10
2019-04-07T04:58:02.449Z,13.28
2019-04-07T05:00:32.151Z,13.60
2019-04-07T05:03:01.422Z,13.38
2019-04-07T05:05:30.594Z,13.60
2019-04-07T05:08:03.577Z,12.60
2019-04-07T05:10:31.031Z,13.55
2019-04-07T05:13:00.454Z,14.03
2019-04-07T05:15:29.705Z,13.10
2019-04-07T05:17:59.014Z,14.13
2019-04-07T05:20:28.527Z,14.93
2019-04-07T05:22:57.716Z,14.25
2019-04-07T05:25:27.409Z,11.85
2019-04-07T05:27:57.053Z,11.35
2019-04-07T05:30:26.922Z,12.75
2019-04-07T05:32:57.351Z,12.65
2019-04-07T05:35:26.665Z,12.93
2019-04-07T05:38:02.662Z,11.93
2019-04-07T05:40:26.755Z,14.15
2019-04-07T05:42:56.250Z,13.60
2019-04-07T05:45:25.441Z,14.47
2019-04-07T05:47:55.369Z,14.95
2019-04-07T05:50:27.471Z,14.43
2019-04-07T05:52:56.596Z,15.38
2019-04-07T05:55:25.683Z,14.13
2019-04-07T05:57:54.854Z,13.43
2019-04-07T06:00:24.077Z,14.98
2019-04-07T06:02:53.226Z,13.43
2019-04-07T06:05:22.880Z,13.15
2019-04-07T06:07:52.708Z,12.88
2019-04-07T06:10:23.884Z,14.33
2019-04-07T06:12:53.134Z,13.18
2019-04-07T06:15:23.242Z,13.18
2019-04-07T06:17:52.520Z,12.73
2019-04-07T06:20:22.491Z,12.45
2019-04-07T06:22:53.615Z,12.53
2019-04-07T06:25:22.498Z,12.50
2019-04-07T06:27:51.904Z,12.58
2019-04-07T06:30:22.099Z,12.88
2019-04-07T06:32:51.577Z,13.50
2019-04-07T06:35:20.951Z,13.20
2019-04-07T06:37:50.787Z,13.25
2019-04-07T06:40:20.647Z,12.35
2019-04-07T06:42:50.818Z,12.23
2019-04-07T06:45:27.199Z,12.10
2019-04-07T06:48:02.560Z,11.33
2019-04-07T06:50:56.913Z,12.23
2019-04-07T06:53:25.925Z,11.88
2019-04-07T06:56:12.575Z,12.78
2019-04-07T06:58:46.264Z,12.37
2019-04-07T07:01:25.642Z,13.72
2019-04-07T07:04:13.172Z,12.58
2019-04-07T07:06:50.326Z,11.95
2019-04-07T07:09:30.620Z,12.82
2019-04-07T07:12:23.495Z,11.35
2019-04-07T07:14:50.800Z,11.18
2019-04-07T07:17:31.083Z,12.18
2019-04-07T07:20:04.404Z,12.18
2019-04-07T07:22:34.752Z,10.55
2019-04-07T07:25:05.164Z,10.00
2019-04-07T07:27:38.589Z,9.80
2019-04-07T07:30:07.740Z,9.58
2019-04-07T07:32:37.370Z,9.65
2019-04-07T07:35:07.945Z,8.80
2019-04-07T07:37:37.817Z,7.85
2019-04-07T07:40:09.573Z,8.10
2019-04-07T07:42:38.180Z,8.43
2019-04-07T07:45:11.854Z,7.67
2019-04-07T07:47:39.629Z,8.35
2019-04-07T07:50:09.242Z,8.58
2019-04-07T07:52:38.731Z,6.90
2019-04-07T07:55:08.234Z,7.30
2019-04-07T07:57:37.938Z,8.00
2019-04-07T08:00:08.333Z,7.78
2019-04-07T08:02:37.658Z,7.00
2019-04-07T08:05:07.163Z,6.87
2019-04-07T08:07:36.507Z,7.42
2019-04-07T08:10:07.359Z,7.05
2019-04-07T08:12:36.720Z,6.60
2019-04-07T08:15:07.093Z,7.72
2019-04-07T08:17:36.657Z,6.25
2019-04-07T08:20:06.671Z,6.75
2019-04-07T08:22:42.952Z,7.28
2019-04-07T08:25:08.702Z,7.40
2019-04-07T08:27:38.737Z,7.92
2019-04-07T08:30:11.827Z,6.87
2019-04-07T08:32:39.857Z,6.70
2019-04-07T08:35:09.953Z,7.37
2019-04-07T08:37:39.421Z,7.97
2019-04-07T08:40:09.144Z,7.10
2019-04-07T08:42:39.138Z,8.58
2019-04-07T08:45:09.366Z,7.10
2019-04-07T08:47:39.184Z,7.87
2019-04-07T08:50:09.566Z,8.03
2019-04-07T08:52:41.933Z,8.08
2019-04-07T08:55:10.314Z,6.75
2019-04-07T08:57:40.085Z,7.08
2019-04-07T09:00:15.035Z,7.62
2019-04-07T09:02:42.722Z,6.22
2019-04-07T09:05:12.930Z,6.30
2019-04-07T09:07:42.332Z,6.62
2019-04-07T09:10:16.512Z,6.72
2019-04-07T09:12:44.130Z,6.33
2019-04-07T09:15:15.517Z,6.55
2019-04-07T09:17:49.638Z,6.22
2019-04-07T09:20:26.703Z,6.90
2019-04-07T09:23:11.288Z,6.67
2019-04-07T09:25:43.607Z,6.25
2019-04-07T09:28:19.943Z,6.25
2019-04-07T09:30:49.938Z,5.30
2019-04-07T09:33:29.835Z,5.95
2019-04-07T09:36:03.738Z,6.08
2019-04-07T09:38:38.624Z,6.35
2019-04-07T09:41:10.071Z,6.12
2019-04-07T09:44:01.522Z,5.72
2019-04-07T09:46:41.983Z,6.05
2019-04-07T09:49:10.321Z,6.05
2019-04-07T09:51:47.305Z,6.35
2019-04-07T09:54:20.651Z,6.25
2019-04-07T09:56:50.819Z,6.00
2019-04-07T09:59:30.712Z,6.58
2019-04-07T10:02:08.197Z,6.83
2019-04-07T10:04:59.482Z,6.35
2019-04-07T10:07:35.890Z,6.10
2019-04-07T10:10:24.931Z,6.22
2019-04-07T10:12:56.515Z,4.97
2019-04-07T10:15:39.673Z,5.58
2019-04-07T10:18:26.921Z,5.60
2019-04-07T10:21:01.753Z,5.87
2019-04-07T10:23:36.469Z,6.12
2019-04-07T10:26:24.396Z,5.60
2019-04-07T10:29:01.799Z,5.70
2019-04-07T10:31:38.790Z,5.50
2019-04-07T10:34:25.904Z,5.67
2019-04-07T10:37:03.452Z,6.05
2019-04-07T10:39:48.353Z,5.40
2019-04-07T10:42:36.990Z,5.22
2019-04-07T10:45:12.689Z,5.30
2019-04-07T10:48:03.026Z,5.12
2019-04-07T10:50:51.817Z,5.95
2019-04-07T10:53:31.079Z,5.33
2019-04-07T10:56:02.222Z,5.17
2019-04-07T10:58:41.397Z,5.17
2019-04-07T11:01:12.577Z,5.58
2019-04-07T11:03:53.964Z,5.95
2019-04-07T11:06:25.434Z,5.70
2019-04-07T11:09:08.821Z,5.65
2019-04-07T11:11:49.523Z,5.90
2019-04-07T11:14:26.930Z,6.15
2019-04-07T11:17:16.249Z,5.95
2019-04-07T11:20:01.640Z,5.40
2019-04-07T11:22:50.055Z,6.25
2019-04-07T11:25:21.712Z,5.72
2019-04-07T11:27:56.102Z,5.25
2019-04-07T11:30:27.326Z,5.45
2019-04-07T11:33:00.823Z,5.15
2019-04-07T11:35:36.841Z,6.03
2019-04-07T11:38:08.256Z,5.95
2019-04-07T11:40:51.027Z,6.92
2019-04-07T11:43:23.793Z,6.45
2019-04-07T11:46:01.016Z,5.75
2019-04-07T11:48:30.318Z,5.92
2019-04-07T11:51:10.603Z,5.53
2019-04-07T11:53:54.108Z,5.00
2019-04-07T11:56:40.201Z,5.00
2019-04-07T11:59:14.778Z,5.08
2019-04-07T12:01:49.910Z,5.10
2019-04-07T12:04:25.113Z,5.05
2019-04-07T12:07:19.107Z,5.42
2019-04-07T12:09:56.966Z,5.47
2019-04-07T12:12:28.896Z,5.08
2019-04-07T12:15:02.861Z,5.22
2019-04-07T12:17:47.094Z,5.50
2019-04-07T12:20:27.032Z,5.47
2019-04-07T12:22:58.266Z,4.72
2019-04-07T12:25:44.799Z,5.22
2019-04-07T12:28:17.862Z,5.15
2019-04-07T12:30:52.873Z,5.33
2019-04-07T12:33:28.609Z,5.55
2019-04-07T12:36:06.187Z,5.00
2019-04-07T12:38:43.216Z,4.50
2019-04-07T12:41:21.954Z,4.75
2019-04-07T12:44:04.509Z,5.00
2019-04-07T12:46:41.839Z,5.28
2019-04-07T12:49:19.765Z,4.40
2019-04-07T12:52:00.228Z,4.58
2019-04-07T12:54:34.185Z,4.75
2019-04-07T12:57:12.148Z,4.75
2019-04-07T12:59:48.857Z,4.62
2019-04-07T13:02:34.913Z,5.22
2019-04-07T13:05:08.790Z,4.55
2019-04-07T13:07:58.091Z,4.30
2019-04-07T13:10:30.277Z,4.95
2019-04-07T13:13:08.017Z,5.25
2019-04-07T13:15:49.800Z,5.20
2019-04-07T13:18:31.426Z,4.95
2019-04-07T13:21:10.917Z,5.37
2019-04-07T13:23:41.961Z,4.67
2019-04-07T13:26:16.469Z,4.62
2019-04-07T13:28:50.416Z,4.37
2019-04-07T13:31:30.425Z,4.83
2019-04-07T13:34:04.260Z,4.50
2019-04-07T13:36:53.007Z,4.62
2019-04-07T13:39:30.356Z,4.95
2019-04-07T13:42:06.078Z,4.37
2019-04-07T13:44:52.560Z,5.40
2019-04-07T13:47:43.196Z,4.40
2019-04-07T13:50:20.686Z,4.65
2019-04-07T13:52:57.838Z,4.75
2019-04-07T13:55:42.628Z,5.53
2019-04-07T13:58:33.027Z,4.83
2019-04-07T14:01:20.863Z,4.53
2019-04-07T14:04:02.406Z,5.65
2019-04-07T14:06:44.907Z,4.72
2019-04-07T14:09:18.053Z,4.70
2019-04-07T14:12:00.097Z,5.22
2019-04-07T14:14:35.103Z,5.30
2019-04-07T14:17:07.266Z,5.17
2019-04-07T14:19:44.510Z,5.28
2019-04-07T14:22:17.730Z,4.47
2019-04-07T14:24:54.779Z,4.70
2019-04-07T14:27:28.712Z,5.05
2019-04-07T14:30:13.659Z,4.83
2019-04-07T14:32:57.410Z,5.17
2019-04-07T14:35:29.326Z,4.65
2019-04-07T14:38:11.957Z,3.75
2019-04-07T14:40:45.718Z,4.60
2019-04-07T14:43:16.969Z,4.58
2019-04-07T14:46:03.259Z,4.97
2019-04-07T14:49:06.573Z,5.37
2019-04-07T14:52:16.594Z,5.50
2019-04-07T14:55:18.431Z,5.30
2019-04-07T14:58:26.971Z,5.33
2019-04-07T15:01:05.923Z,5.20
2019-04-07T15:03:36.345Z,4.75
2019-04-07T15:06:05.455Z,5.50
2019-04-07T15:08:52.903Z,5.50
2019-04-07T15:11:24.958Z,5.40
2019-04-07T15:13:56.938Z,4.95
2019-04-07T15:16:26.285Z,5.10
2019-04-07T15:18:56.504Z,5.30
2019-04-07T15:21:25.905Z,5.35
2019-04-07T15:23:56.180Z,5.08
2019-04-07T15:26:25.367Z,5.30
2019-04-07T15:28:56.837Z,5.25
2019-04-07T15:31:26.342Z,5.42
2019-04-07T15:33:56.339Z,4.83
2019-04-07T15:36:26.434Z,4.65
2019-04-07T15:38:57.208Z,5.17
2019-04-07T15:41:26.431Z,4.85
2019-04-07T15:43:55.813Z,5.25
2019-04-07T15:46:25.666Z,5.60
2019-04-07T15:48:56.748Z,4.92
2019-04-07T15:51:26.321Z,5.40
2019-04-07T15:53:56.540Z,5.60
2019-04-07T15:56:27.912Z,5.37
2019-04-07T15:59:00.712Z,4.87
2019-04-07T16:01:28.632Z,5.62
2019-04-07T16:03:57.872Z,5.87
2019-04-07T16:06:27.928Z,5.20
2019-04-07T16:08:59.762Z,5.42
2019-04-07T16:11:30.223Z,5.70
2019-04-07T16:13:59.571Z,4.83
2019-04-07T16:16:30.733Z,5.58
2019-04-07T16:19:00.046Z,4.87
2019-04-07T16:21:30.045Z,5.20
2019-04-07T16:23:59.471Z,5.55
2019-04-07T16:26:31.130Z,4.62
2019-04-07T16:28:59.785Z,5.10
2019-04-07T16:31:29.798Z,5.53
2019-04-07T16:34:03.355Z,4.35
2019-04-07T16:36:30.292Z,4.20
2019-04-07T16:39:01.903Z,4.30
2019-04-07T16:41:32.786Z,4.83
2019-04-07T16:44:04.877Z,4.75
2019-04-07T16:46:33.686Z,4.30
2019-04-07T16:49:03.092Z,4.60
2019-04-07T16:51:33.891Z,4.90
2019-04-07T16:54:03.104Z,4.28
2019-04-07T16:56:32.345Z,4.45
2019-04-07T16:59:02.537Z,4.35
2019-04-07T17:01:32.127Z,5.33
2019-04-07T17:04:01.231Z,4.90
2019-04-07T17:06:35.310Z,4.95
2019-04-07T17:09:02.573Z,4.72
2019-04-07T17:11:36.963Z,5.00
2019-04-07T17:14:05.497Z,4.65
2019-04-07T17:16:35.340Z,4.62
2019-04-07T17:19:05.188Z,4.55
2019-04-07T17:21:37.674Z,4.28
2019-04-07T17:24:06.525Z,8.25
2019-04-07T17:26:39.132Z,8.80
2019-04-07T17:29:07.821Z,6.17
2019-04-07T17:31:38.054Z,5.35
2019-04-07T17:34:10.869Z,4.03
2019-04-07T17:36:40.835Z,4.05
2019-04-07T17:39:13.307Z,5.12
2019-04-07T17:41:43.694Z,4.28
2019-04-07T17:44:18.304Z,4.58
2019-04-07T17:46:48.103Z,4.80
2019-04-07T17:49:39.366Z,5.00
2019-04-07T17:52:17.114Z,5.25
2019-04-07T17:54:50.827Z,4.70
2019-04-07T17:57:20.897Z,4.87
2019-04-07T17:59:52.491Z,4.97
2019-04-07T18:02:29.323Z,5.30
2019-04-07T18:04:59.758Z,5.03
2019-04-07T18:07:47.698Z,5.05
2019-04-07T18:10:37.013Z,5.15
2019-04-07T18:13:25.793Z,5.20
2019-04-07T18:16:13.926Z,4.78
2019-04-07T18:19:01.647Z,5.60
2019-04-07T18:21:33.428Z,5.62
2019-04-07T18:24:20.773Z,5.00
2019-04-07T18:26:53.598Z,4.97
2019-04-07T18:29:28.788Z,5.17
2019-04-07T18:34:57.038Z,5.33
2019-04-07T18:37:36.433Z,5.30
2019-04-07T18:40:07.063Z,5.53
2019-04-07T18:42:42.222Z,6.85
2019-04-07T18:45:27.185Z,6.08
2019-04-07T18:47:59.273Z,6.42
2019-04-07T18:50:36.961Z,6.33
2019-04-07T18:53:14.677Z,5.40
2019-04-07T18:55:48.681Z,4.92
2019-04-07T18:58:34.774Z,5.33
2019-04-07T19:01:22.308Z,5.65
2019-04-07T19:03:53.629Z,5.47
2019-04-07T19:06:24.755Z,5.70
2019-04-07T19:09:08.198Z,6.03
2019-04-07T19:12:05.143Z,6.53
2019-04-07T19:14:44.503Z,6.25
2019-04-07T19:17:17.065Z,6.20
2019-04-07T19:20:06.266Z,6.78
2019-04-07T19:22:37.080Z,6.60
2019-04-07T19:25:25.692Z,6.37
2019-04-07T19:28:13.554Z,7.00
2019-04-07T19:30:47.516Z,6.83
2019-04-07T19:33:17.873Z,6.70
2019-04-07T19:36:10.275Z,7.62
2019-04-07T19:38:49.277Z,7.70
2019-04-07T19:41:36.780Z,7.40
2019-04-07T19:44:13.742Z,6.85
2019-04-07T19:47:01.443Z,7.12
2019-04-07T19:49:50.505Z,7.17
2019-04-07T19:52:26.940Z,7.60
2019-04-07T19:54:57.543Z,7.28
2019-04-07T19:57:34.282Z,7.78
2019-04-07T20:00:27.353Z,7.47
2019-04-07T20:03:04.210Z,8.20
2019-04-07T20:05:36.306Z,6.97
2019-04-07T20:08:14.117Z,7.37
2019-04-07T20:10:52.290Z,7.50
2019-04-07T20:13:40.852Z,7.97
2019-04-07T20:16:13.732Z,7.83
2019-04-07T20:18:44.257Z,7.90
2019-04-07T20:21:17.577Z,8.00
2019-04-07T20:23:47.924Z,8.13
2019-04-07T20:26:30.872Z,8.33
2019-04-07T20:29:06.928Z,8.15
2019-04-07T20:31:39.512Z,7.70
2019-04-07T20:34:16.386Z,8.13
2019-04-07T20:36:48.004Z,7.25
2019-04-07T20:39:19.340Z,7.78
2019-04-07T20:41:57.058Z,7.60
2019-04-07T20:44:38.153Z,8.25
2019-04-07T20:47:09.107Z,9.18
2019-04-07T20:49:43.610Z,8.05
2019-04-07T20:52:20.077Z,8.15
2019-04-07T20:54:50.793Z,8.33
2019-04-07T20:57:24.846Z,8.85
2019-04-07T20:59:55.655Z,8.73
2019-04-07T21:02:29.660Z,9.13
2019-04-07T21:05:23.991Z,8.60
2019-04-07T21:07:54.639Z,8.95
2019-04-07T21:10:27.574Z,9.60
2019-04-07T21:13:04.230Z,9.10
2019-04-07T21:15:37.496Z,9.10
2019-04-07T21:18:11.335Z,9.28
2019-04-07T21:20:44.105Z,9.85
2019-04-07T21:23:17.132Z,9.13
2019-04-07T21:25:57.182Z,9.93
2019-04-07T21:28:38.949Z,10.18
2019-04-07T21:31:22.609Z,9.20
2019-04-07T21:33:59.755Z,9.08
2019-04-07T21:36:30.554Z,8.93
2019-04-07T21:39:10.154Z,8.55
2019-04-07T21:41:44.221Z,8.08
2019-04-07T21:44:31.780Z,8.88
2019-04-07T21:47:12.037Z,8.45
2019-04-07T21:49:58.038Z,7.83
2019-04-07T21:52:30.045Z,9.58
2019-04-07T21:55:09.879Z,8.35
2019-04-07T21:57:50.140Z,8.58
2019-04-07T22:00:20.875Z,7.92
2019-04-07T22:03:03.421Z,8.75
2019-04-07T22:05:34.990Z,9.53
2019-04-07T22:08:14.457Z,9.10
2019-04-07T22:10:39.861Z,8.18
2019-04-07T22:13:09.262Z,7.83
2019-04-07T22:15:45.846Z,7.92
2019-04-07T22:18:09.940Z,7.45
2019-04-07T22:20:39.707Z,7.75
2019-04-07T22:23:09.988Z,7.20
2019-04-07T22:25:46.871Z,8.43
2019-04-07T22:28:17.195Z,8.15
2019-04-07T22:30:46.721Z,7.17
2019-04-07T22:33:16.049Z,8.03
2019-04-07T22:35:45.347Z,8.20
2019-04-07T22:38:14.976Z,8.68
2019-04-07T22:40:45.795Z,8.00
2019-04-07T22:43:17.068Z,7.78
2019-04-07T22:45:54.970Z,8.03
2019-04-07T22:48:16.711Z,7.53
2019-04-07T22:50:45.793Z,7.40
2019-04-07T22:53:15.039Z,8.28
2019-04-07T22:55:44.192Z,8.00
2019-04-07T22:58:13.895Z,8.43
2019-04-07T23:00:43.326Z,8.73
2019-04-07T23:03:12.647Z,8.35
2019-04-07T23:05:41.793Z,8.88
2019-04-07T23:08:10.871Z,9.15
2019-04-07T23:10:40.819Z,8.90
2019-04-07T23:13:10.054Z,8.63
2019-04-07T23:15:44.367Z,8.58
2019-04-07T23:18:11.621Z,8.15
2019-04-07T23:20:41.668Z,8.10
2019-04-07T23:23:11.042Z,8.70
2019-04-07T23:25:40.168Z,8.25
2019-04-07T23:28:10.258Z,8.80
2019-04-07T23:30:39.752Z,7.67
2019-04-07T23:33:08.977Z,8.55
2019-04-07T23:35:39.232Z,8.03
2019-04-07T23:38:09.558Z,7.55
2019-04-07T23:40:39.954Z,8.15
2019-04-07T23:43:09.119Z,8.10
2019-04-07T23:45:39.936Z,8.80
2019-04-07T23:48:10.374Z,8.58
2019-04-07T23:50:39.637Z,7.83
2019-04-07T23:53:27.158Z,7.17
2019-04-07T23:55:56.462Z,7.97
2019-04-07T23:58:25.581Z,7.00
